createdAt,value
2019-03-19T00:02:11.168Z,6.30
2019-03-19T00:04:43.694Z,6.30
2019-03-19T00:07:16.111Z,6.30
2019-03-19T00:09:48.771Z,6.30
2019-03-19T00:12:21.227Z,6.30
2019-03-19T00:14:53.456Z,6.30
2019-03-19T00:17:25.883Z,6.30
2019-03-19T00:19:58.170Z,6.40
2019-03-19T00:22:30.533Z,6.40
2019-03-19T00:25:02.789Z,6.40
2019-03-19T00:27:35.514Z,6.40
2019-03-19T00:30:09.013Z,6.40
2019-03-19T00:32:41.721Z,6.20
2019-03-19T00:35:15.089Z,6.20
2019-03-19T00:37:47.530Z,6.10
2019-03-19T00:40:20.307Z,6.10
2019-03-19T00:42:52.824Z,6.10
2019-03-19T00:45:25.483Z,6.10
2019-03-19T00:47:57.865Z,6.00
2019-03-19T00:50:30.522Z,6.10
2019-03-19T00:53:02.939Z,6.00
2019-03-19T00:55:40.778Z,6.10
2019-03-19T00:58:09.353Z,6.10
2019-03-19T01:00:41.855Z,6.20
2019-03-19T01:03:14.391Z,6.10
2019-03-19T01:05:46.803Z,6.20
2019-03-19T01:08:19.587Z,6.10
2019-03-19T01:10:52.103Z,6.20
2019-03-19T01:13:24.456Z,6.20
2019-03-19T01:15:56.778Z,6.20
2019-03-19T01:18:29.163Z,6.20
2019-03-19T01:21:01.730Z,6.20
2019-03-19T01:23:34.691Z,6.10
2019-03-19T01:26:06.980Z,6.20
2019-03-19T01:28:39.673Z,6.20
2019-03-19T01:31:11.977Z,6.10
2019-03-19T01:33:44.545Z,6.10
2019-03-19T01:36:17.229Z,6.10
2019-03-19T01:38:49.921Z,6.10
2019-03-19T01:41:22.774Z,6.10
2019-03-19T01:43:55.419Z,6.10
2019-03-19T01:46:27.957Z,6.10
2019-03-19T01:49:00.531Z,6.10
2019-03-19T01:51:33.202Z,6.10
2019-03-19T01:54:06.462Z,6.00
2019-03-19T01:56:38.823Z,6.00
2019-03-19T01:59:11.440Z,6.00
2019-03-19T02:01:44.819Z,6.00
2019-03-19T02:04:17.618Z,5.90
2019-03-19T02:06:49.915Z,5.90
2019-03-19T02:09:22.327Z,5.80
2019-03-19T02:11:54.693Z,5.80
2019-03-19T02:14:27.105Z,5.80
2019-03-19T02:17:00.125Z,5.90
2019-03-19T02:19:32.554Z,5.90
2019-03-19T02:22:04.973Z,5.90
2019-03-19T02:24:37.348Z,5.90
2019-03-19T02:27:09.717Z,5.80
2019-03-19T02:29:42.009Z,5.80
2019-03-19T02:32:14.602Z,5.70
2019-03-19T02:34:46.912Z,5.80
2019-03-19T02:37:19.538Z,5.80
2019-03-19T02:39:52.257Z,5.80
2019-03-19T02:42:24.783Z,5.80
2019-03-19T02:45:03.829Z,5.80
2019-03-19T02:47:38.963Z,5.80
2019-03-19T02:50:12.032Z,5.80
2019-03-19T02:52:44.654Z,5.90
2019-03-19T02:55:29.348Z,5.80
2019-03-19T02:58:01.664Z,5.90
2019-03-19T03:00:33.933Z,5.90
2019-03-19T03:03:06.460Z,5.80
2019-03-19T03:05:38.719Z,5.90
2019-03-19T03:08:11.641Z,5.90
2019-03-19T03:10:44.308Z,5.80
2019-03-19T03:13:16.883Z,5.80
2019-03-19T03:15:49.260Z,5.90
2019-03-19T03:18:21.734Z,6.00
2019-03-19T03:20:54.045Z,6.00
2019-03-19T03:23:26.472Z,6.00
2019-03-19T03:26:00.362Z,6.00
2019-03-19T03:28:32.943Z,6.10
2019-03-19T03:31:05.895Z,6.00
2019-03-19T03:33:38.285Z,6.00
2019-03-19T03:36:10.556Z,6.10
2019-03-19T03:38:43.024Z,5.90
2019-03-19T03:41:15.604Z,5.90
2019-03-19T03:43:48.037Z,5.90
2019-03-19T03:46:20.814Z,5.90
2019-03-19T03:48:53.368Z,5.90
2019-03-19T03:51:25.849Z,5.90
2019-03-19T03:53:58.441Z,5.90
2019-03-19T03:56:31.068Z,5.80
2019-03-19T03:59:03.396Z,5.80
2019-03-19T04:01:36.154Z,5.70
2019-03-19T04:04:08.893Z,5.70
2019-03-19T04:06:41.625Z,5.70
2019-03-19T04:09:14.013Z,5.80
2019-03-19T04:11:46.628Z,5.80
2019-03-19T04:14:18.817Z,5.90
2019-03-19T04:16:51.257Z,5.90
2019-03-19T04:19:23.956Z,5.90
2019-03-19T04:21:56.675Z,5.90
2019-03-19T04:24:29.180Z,5.90
2019-03-19T04:27:14.912Z,5.90
2019-03-19T04:29:35.631Z,5.80
2019-03-19T04:32:07.986Z,5.70
2019-03-19T04:34:40.409Z,5.70
2019-03-19T04:37:12.831Z,5.70
2019-03-19T04:39:45.580Z,5.70
2019-03-19T04:42:17.981Z,5.70
2019-03-19T04:44:50.647Z,5.70
2019-03-19T04:47:23.065Z,5.70
2019-03-19T04:49:55.601Z,5.70
2019-03-19T04:52:28.330Z,5.80
2019-03-19T04:55:00.611Z,5.80
2019-03-19T04:57:33.064Z,5.80
2019-03-19T05:00:05.815Z,5.60
2019-03-19T05:02:38.190Z,5.60
2019-03-19T05:05:11.524Z,5.70
2019-03-19T05:07:43.953Z,5.70
2019-03-19T05:10:16.536Z,5.70
2019-03-19T05:12:49.047Z,5.70
2019-03-19T05:15:21.379Z,5.70
2019-03-19T05:17:53.876Z,5.70
2019-03-19T05:20:26.311Z,5.70
2019-03-19T05:22:58.576Z,5.70
2019-03-19T05:25:31.093Z,5.70
2019-03-19T05:28:03.478Z,5.80
2019-03-19T05:30:35.739Z,5.80
2019-03-19T05:33:08.587Z,5.90
2019-03-19T05:35:41.434Z,5.90
2019-03-19T05:38:14.311Z,6.00
2019-03-19T05:40:46.644Z,5.80
2019-03-19T05:43:19.184Z,5.80
2019-03-19T05:45:51.952Z,5.80
2019-03-19T05:48:24.423Z,5.90
2019-03-19T05:50:56.920Z,5.90
2019-03-19T05:53:29.743Z,5.90
2019-03-19T05:56:02.343Z,5.90
2019-03-19T05:58:34.855Z,5.90
2019-03-19T06:01:07.535Z,6.00
2019-03-19T06:03:40.669Z,6.00
2019-03-19T06:06:13.114Z,6.00
2019-03-19T06:08:45.555Z,6.10
2019-03-19T06:11:18.003Z,6.10
2019-03-19T06:13:50.638Z,6.10
2019-03-19T06:16:22.967Z,6.10
2019-03-19T06:18:55.523Z,6.20
2019-03-19T06:21:27.849Z,6.20
2019-03-19T06:24:00.535Z,6.30
2019-03-19T06:26:32.818Z,6.30
2019-03-19T06:29:05.318Z,6.40
2019-03-19T06:31:37.733Z,6.40
2019-03-19T06:34:10.125Z,6.50
2019-03-19T06:36:42.480Z,6.50
2019-03-19T06:39:15.108Z,6.50
2019-03-19T06:41:47.422Z,6.50
2019-03-19T06:44:19.968Z,6.40
2019-03-19T06:47:03.458Z,6.40
2019-03-19T06:49:36.086Z,6.50
2019-03-19T06:52:08.522Z,6.50
2019-03-19T06:54:40.856Z,6.50
2019-03-19T06:57:13.589Z,6.60
2019-03-19T06:59:46.556Z,6.50
2019-03-19T07:02:18.946Z,6.50
2019-03-19T07:04:51.210Z,6.50
2019-03-19T07:07:23.529Z,6.50
2019-03-19T07:09:56.030Z,6.50
2019-03-19T07:12:31.666Z,6.50
2019-03-19T07:15:04.418Z,6.60
2019-03-19T07:17:36.901Z,6.80
2019-03-19T07:20:10.747Z,7.00
2019-03-19T07:22:43.235Z,7.20
2019-03-19T07:25:15.763Z,7.40
2019-03-19T07:27:48.350Z,7.60
2019-03-19T07:30:20.891Z,7.80
2019-03-19T07:32:53.460Z,8.10
2019-03-19T07:35:26.266Z,8.40
2019-03-19T07:37:58.858Z,8.80
2019-03-19T07:40:31.337Z,9.20
2019-03-19T07:43:03.785Z,9.60
2019-03-19T07:45:36.302Z,10.00
2019-03-19T07:48:08.899Z,10.30
2019-03-19T07:50:42.039Z,10.60
2019-03-19T07:53:14.700Z,10.70
2019-03-19T07:55:47.749Z,10.80
2019-03-19T07:58:31.313Z,10.60
2019-03-19T08:00:54.658Z,10.60
2019-03-19T08:03:27.057Z,10.70
2019-03-19T08:05:59.567Z,10.70
2019-03-19T08:08:31.986Z,10.80
2019-03-19T08:11:04.351Z,11.10
2019-03-19T08:13:36.775Z,11.00
2019-03-19T08:16:09.301Z,11.00
2019-03-19T08:18:41.961Z,11.20
2019-03-19T08:21:14.361Z,11.20
2019-03-19T08:23:46.774Z,11.30
2019-03-19T08:26:19.165Z,11.40
2019-03-19T08:28:55.261Z,11.60
2019-03-19T08:31:26.223Z,11.50
2019-03-19T08:33:58.907Z,11.60
2019-03-19T08:36:31.486Z,11.60
2019-03-19T08:39:04.023Z,11.40
2019-03-19T08:41:36.481Z,11.50
2019-03-19T08:44:08.902Z,11.40
2019-03-19T08:46:44.160Z,11.30
2019-03-19T08:49:16.596Z,11.40
2019-03-19T08:51:49.197Z,11.30
2019-03-19T08:54:22.012Z,11.30
2019-03-19T08:56:54.484Z,11.20
2019-03-19T08:59:27.199Z,11.00
2019-03-19T09:01:59.799Z,11.10
2019-03-19T09:04:32.388Z,11.10
2019-03-19T09:07:05.016Z,11.10
2019-03-19T09:09:37.750Z,10.90
2019-03-19T09:12:10.359Z,10.80
2019-03-19T09:14:44.720Z,10.80
2019-03-19T09:17:17.198Z,10.90
2019-03-19T09:19:50.026Z,11.00
2019-03-19T09:22:22.888Z,11.20
2019-03-19T09:24:55.523Z,11.60
2019-03-19T09:27:28.047Z,11.90
2019-03-19T09:30:00.595Z,12.00
2019-03-19T09:32:33.205Z,12.20
2019-03-19T09:35:05.869Z,12.50
2019-03-19T09:37:44.338Z,12.60
2019-03-19T09:40:15.368Z,12.80
2019-03-19T09:42:48.000Z,12.90
2019-03-19T09:45:20.603Z,13.00
2019-03-19T09:47:53.327Z,12.90
2019-03-19T09:50:26.415Z,12.90
2019-03-19T09:52:58.952Z,12.90
2019-03-19T09:55:31.830Z,12.90
2019-03-19T09:58:04.667Z,13.00
2019-03-19T10:00:37.183Z,13.00
2019-03-19T10:03:09.817Z,12.90
2019-03-19T10:05:42.380Z,13.00
2019-03-19T10:08:14.981Z,13.10
2019-03-19T10:10:47.368Z,13.40
2019-03-19T10:13:19.824Z,13.40
2019-03-19T10:15:53.171Z,13.50
2019-03-19T10:18:26.540Z,13.80
2019-03-19T10:20:59.292Z,14.10
2019-03-19T10:23:31.856Z,14.60
2019-03-19T10:26:04.568Z,15.10
2019-03-19T10:28:37.158Z,15.50
2019-03-19T10:31:11.507Z,16.00
2019-03-19T10:33:44.437Z,16.00
2019-03-19T10:36:17.000Z,16.00
2019-03-19T10:38:49.345Z,15.80
2019-03-19T10:41:21.741Z,15.30
2019-03-19T10:43:54.195Z,14.90
2019-03-19T10:46:26.764Z,14.80
2019-03-19T10:48:59.099Z,14.60
2019-03-19T10:51:31.485Z,14.40
2019-03-19T10:54:03.886Z,14.50
2019-03-19T10:56:38.787Z,14.30
2019-03-19T10:59:10.453Z,14.30
2019-03-19T11:01:43.026Z,14.50
2019-03-19T11:04:16.178Z,14.70
2019-03-19T11:06:48.687Z,14.90
2019-03-19T11:09:21.718Z,15.10
2019-03-19T11:11:54.388Z,15.40
2019-03-19T11:14:27.225Z,15.90
2019-03-19T11:17:00.129Z,15.90
2019-03-19T11:19:32.522Z,16.00
2019-03-19T11:22:05.055Z,15.60
2019-03-19T11:24:37.402Z,15.60
2019-03-19T11:27:10.469Z,15.30
2019-03-19T11:29:42.916Z,14.70
2019-03-19T11:32:15.413Z,15.00
2019-03-19T11:34:47.990Z,15.60
2019-03-19T11:37:20.691Z,16.10
2019-03-19T11:39:53.376Z,16.30
2019-03-19T11:42:25.998Z,16.30
2019-03-19T11:44:58.492Z,16.20
2019-03-19T11:47:30.897Z,15.80
2019-03-19T11:50:03.414Z,15.40
2019-03-19T11:52:36.004Z,15.50
2019-03-19T11:55:09.392Z,15.40
2019-03-19T11:57:42.285Z,15.20
2019-03-19T12:00:25.959Z,15.00
2019-03-19T12:02:58.323Z,15.00
2019-03-19T12:05:31.207Z,15.10
2019-03-19T12:08:04.066Z,14.70
2019-03-19T12:10:36.868Z,14.30
2019-03-19T12:13:09.758Z,14.20
2019-03-19T12:15:42.500Z,14.10
2019-03-19T12:18:15.347Z,14.00
2019-03-19T12:20:48.114Z,14.20
2019-03-19T12:23:20.809Z,14.40
2019-03-19T12:25:53.382Z,14.10
2019-03-19T12:28:26.216Z,14.10
2019-03-19T12:30:58.956Z,14.10
2019-03-19T12:33:40.371Z,13.70
2019-03-19T12:36:06.081Z,13.60
2019-03-19T12:38:39.652Z,13.40
2019-03-19T12:41:12.461Z,13.20
2019-03-19T12:43:44.841Z,12.80
2019-03-19T12:46:17.278Z,12.80
2019-03-19T12:48:50.269Z,12.60
2019-03-19T12:51:22.804Z,12.70
2019-03-19T12:53:55.257Z,12.60
2019-03-19T12:56:27.954Z,12.50
2019-03-19T12:59:00.725Z,12.40
2019-03-19T13:01:33.431Z,12.80
2019-03-19T13:04:06.047Z,13.00
2019-03-19T13:06:38.609Z,12.80
2019-03-19T13:09:11.548Z,13.00
2019-03-19T13:11:44.021Z,12.90
2019-03-19T13:14:16.642Z,12.80
2019-03-19T13:16:49.086Z,12.70
2019-03-19T13:19:21.728Z,12.60
2019-03-19T13:21:54.115Z,12.60
2019-03-19T13:24:37.746Z,12.70
2019-03-19T13:27:10.285Z,12.60
2019-03-19T13:29:42.837Z,12.50
2019-03-19T13:32:15.374Z,12.40
2019-03-19T13:34:48.339Z,12.40
2019-03-19T13:37:20.859Z,12.50
2019-03-19T13:39:53.244Z,12.50
2019-03-19T13:42:26.094Z,12.50
2019-03-19T13:44:58.595Z,12.60
2019-03-19T13:47:31.233Z,12.50
2019-03-19T13:50:04.041Z,12.30
2019-03-19T13:52:36.807Z,12.30
2019-03-19T13:55:11.137Z,12.20
2019-03-19T13:57:43.861Z,12.20
2019-03-19T14:00:17.292Z,12.30
2019-03-19T14:02:50.086Z,12.10
2019-03-19T14:05:22.864Z,12.10
2019-03-19T14:07:55.454Z,12.00
2019-03-19T14:10:28.170Z,12.00
2019-03-19T14:13:00.512Z,11.90
2019-03-19T14:15:33.070Z,11.90
2019-03-19T14:18:05.612Z,12.00
2019-03-19T14:20:38.327Z,11.90
2019-03-19T14:23:10.828Z,11.90
2019-03-19T14:25:45.676Z,12.00
2019-03-19T14:28:19.632Z,12.00
2019-03-19T14:30:52.447Z,12.00
2019-03-19T14:33:24.882Z,12.10
2019-03-19T14:35:57.725Z,12.20
2019-03-19T14:38:30.292Z,12.20
2019-03-19T14:41:02.955Z,12.00
2019-03-19T14:43:35.467Z,11.90
2019-03-19T14:46:07.884Z,12.00
2019-03-19T14:48:40.264Z,12.10
2019-03-19T14:51:14.489Z,12.00
2019-03-19T14:53:47.162Z,12.00
2019-03-19T14:56:19.936Z,11.80
2019-03-19T14:58:52.291Z,11.90
2019-03-19T15:01:24.865Z,11.80
2019-03-19T15:03:57.278Z,11.80
2019-03-19T15:06:29.982Z,11.70
2019-03-19T15:09:02.560Z,11.70
2019-03-19T15:11:35.141Z,11.50
2019-03-19T15:14:07.629Z,11.60
2019-03-19T15:16:40.341Z,11.60
2019-03-19T15:19:12.928Z,11.50
2019-03-19T15:21:45.652Z,11.50
2019-03-19T15:24:18.127Z,11.60
2019-03-19T15:26:50.774Z,11.60
2019-03-19T15:29:23.217Z,11.70
2019-03-19T15:31:55.804Z,11.60
2019-03-19T15:34:28.578Z,11.60
2019-03-19T15:37:01.173Z,11.70
2019-03-19T15:39:33.747Z,11.70
2019-03-19T15:42:06.474Z,11.60
2019-03-19T15:44:39.125Z,11.50
2019-03-19T15:47:11.604Z,11.60
2019-03-19T15:49:44.318Z,11.30
2019-03-19T15:52:16.765Z,11.40
2019-03-19T15:54:50.311Z,11.30
2019-03-19T15:57:23.234Z,11.20
2019-03-19T15:59:55.774Z,11.00
2019-03-19T16:02:27.801Z,11.00
2019-03-19T16:05:00.413Z,11.00
2019-03-19T16:07:32.917Z,11.00
2019-03-19T16:10:06.112Z,10.90
2019-03-19T16:12:38.734Z,10.80
2019-03-19T16:15:14.076Z,10.70
2019-03-19T16:17:46.834Z,10.70
2019-03-19T16:20:19.538Z,10.80
2019-03-19T16:23:03.310Z,10.70
2019-03-19T16:25:35.977Z,10.70
2019-03-19T16:28:08.563Z,10.70
2019-03-19T16:30:40.700Z,10.70
2019-03-19T16:33:13.574Z,10.60
2019-03-19T16:35:46.199Z,10.60
2019-03-19T16:38:18.709Z,10.70
2019-03-19T16:40:51.212Z,10.60
2019-03-19T16:43:23.943Z,10.60
2019-03-19T16:45:56.763Z,10.50
2019-03-19T16:48:50.104Z,10.40
2019-03-19T16:51:22.555Z,10.30
2019-03-19T16:53:55.041Z,10.30
2019-03-19T16:56:27.496Z,10.20
2019-03-19T16:59:00.092Z,10.00
2019-03-19T17:01:32.886Z,10.00
2019-03-19T17:04:05.672Z,10.00
2019-03-19T17:06:38.647Z,10.00
2019-03-19T17:09:11.247Z,10.00
2019-03-19T17:11:43.771Z,9.90
2019-03-19T17:14:18.378Z,9.80
2019-03-19T17:16:51.442Z,9.80
2019-03-19T17:19:24.098Z,9.80
2019-03-19T17:22:07.946Z,9.70
2019-03-19T17:24:40.917Z,9.70
2019-03-19T17:27:13.668Z,9.70
2019-03-19T17:29:46.466Z,9.60
2019-03-19T17:32:19.165Z,9.50
2019-03-19T17:34:51.766Z,9.50
2019-03-19T17:37:24.319Z,9.70
2019-03-19T17:39:56.855Z,9.80
2019-03-19T17:42:29.320Z,9.80
2019-03-19T17:45:02.147Z,9.80
2019-03-19T17:47:35.020Z,9.90
2019-03-19T17:50:09.944Z,9.70
2019-03-19T17:52:42.567Z,9.50
2019-03-19T17:55:15.210Z,9.40
2019-03-19T17:57:47.808Z,9.30
2019-03-19T18:00:23.241Z,9.40
2019-03-19T18:02:56.263Z,9.40
2019-03-19T18:05:28.922Z,9.40
2019-03-19T18:08:01.535Z,9.40
2019-03-19T18:10:34.418Z,9.40
2019-03-19T18:13:07.152Z,9.40
2019-03-19T18:15:41.002Z,9.40
2019-03-19T18:18:13.377Z,9.40
2019-03-19T18:20:46.022Z,9.40
2019-03-19T18:23:18.079Z,9.60
2019-03-19T18:25:51.558Z,9.60
2019-03-19T18:28:24.274Z,9.50
2019-03-19T18:30:57.054Z,9.40
2019-03-19T18:33:29.794Z,9.50
2019-03-19T18:36:02.463Z,9.50
2019-03-19T18:38:35.137Z,9.60
2019-03-19T18:41:08.036Z,9.40
2019-03-19T18:43:40.552Z,9.30
2019-03-19T18:46:13.563Z,9.20
2019-03-19T18:48:46.407Z,9.00
2019-03-19T18:51:19.161Z,8.90
2019-03-19T18:53:51.956Z,8.80
2019-03-19T18:56:24.668Z,8.70
2019-03-19T18:58:56.991Z,8.70
2019-03-19T19:01:29.579Z,8.70
2019-03-19T19:04:02.062Z,8.50
2019-03-19T19:06:34.692Z,8.50
2019-03-19T19:09:09.776Z,8.50
2019-03-19T19:11:42.586Z,8.40
2019-03-19T19:14:15.194Z,8.40
2019-03-19T19:16:47.753Z,8.40
2019-03-19T19:19:20.145Z,8.40
2019-03-19T19:21:52.547Z,8.30
2019-03-19T19:24:25.199Z,8.20
2019-03-19T19:26:57.876Z,8.20
2019-03-19T19:29:30.463Z,8.10
2019-03-19T19:32:02.877Z,8.10
2019-03-19T19:34:35.630Z,8.10
2019-03-19T19:37:08.492Z,8.10
2019-03-19T19:39:41.024Z,8.00
2019-03-19T19:42:13.402Z,8.00
2019-03-19T19:44:45.894Z,8.10
2019-03-19T19:47:18.485Z,8.30
2019-03-19T19:49:51.207Z,8.10
2019-03-19T19:52:23.853Z,8.00
2019-03-19T19:54:56.471Z,7.90
2019-03-19T19:57:29.496Z,7.80
2019-03-19T20:00:02.456Z,7.70
2019-03-19T20:02:35.481Z,7.60
2019-03-19T20:05:08.324Z,7.60
2019-03-19T20:07:41.136Z,7.60
2019-03-19T20:10:16.903Z,7.60
2019-03-19T20:12:49.505Z,7.60
2019-03-19T20:15:22.115Z,7.60
2019-03-19T20:17:54.645Z,7.60
2019-03-19T20:20:27.348Z,7.60
2019-03-19T20:23:00.217Z,7.60
2019-03-19T20:25:33.009Z,7.50
2019-03-19T20:28:05.731Z,7.50
2019-03-19T20:30:38.471Z,7.40
2019-03-19T20:33:11.100Z,7.40
2019-03-19T20:35:43.706Z,7.40
2019-03-19T20:38:16.361Z,7.40
2019-03-19T20:40:48.836Z,7.50
2019-03-19T20:43:21.746Z,7.70
2019-03-19T20:45:54.230Z,7.90
2019-03-19T20:48:26.760Z,8.00
2019-03-19T20:51:01.561Z,7.90
2019-03-19T20:53:33.991Z,7.80
2019-03-19T20:56:07.005Z,7.80
2019-03-19T20:58:43.662Z,7.80
2019-03-19T21:01:14.138Z,7.80
2019-03-19T21:03:46.748Z,7.80
2019-03-19T21:06:19.616Z,7.60
2019-03-19T21:08:52.056Z,7.70
2019-03-19T21:11:24.539Z,7.60
2019-03-19T21:13:57.180Z,7.70
2019-03-19T21:16:29.617Z,7.70
2019-03-19T21:19:02.043Z,7.80
2019-03-19T21:21:34.381Z,7.80
2019-03-19T21:24:07.116Z,7.70
2019-03-19T21:26:39.749Z,7.80
2019-03-19T21:29:12.545Z,7.70
2019-03-19T21:31:45.070Z,7.60
2019-03-19T21:34:17.525Z,7.60
2019-03-19T21:36:49.991Z,7.50
2019-03-19T21:39:22.410Z,7.40
2019-03-19T21:41:56.086Z,7.40
2019-03-19T21:44:28.693Z,7.30
2019-03-19T21:47:01.267Z,7.20
2019-03-19T21:49:33.817Z,7.10
2019-03-19T21:52:06.710Z,7.00
2019-03-19T21:54:39.162Z,6.90
2019-03-19T21:57:12.084Z,6.80
2019-03-19T21:59:44.727Z,6.80
2019-03-19T22:02:17.606Z,6.70
2019-03-19T22:04:50.161Z,6.70
2019-03-19T22:07:23.116Z,6.70
2019-03-19T22:09:55.445Z,6.70
2019-03-19T22:12:27.843Z,6.60
2019-03-19T22:15:00.372Z,6.50
2019-03-19T22:17:32.857Z,6.50
2019-03-19T22:20:05.779Z,6.60
2019-03-19T22:22:38.134Z,6.60
2019-03-19T22:25:13.323Z,6.50
2019-03-19T22:27:45.880Z,6.50
2019-03-19T22:30:18.774Z,6.50
2019-03-19T22:32:51.184Z,6.40
2019-03-19T22:35:24.015Z,6.40
2019-03-19T22:37:56.330Z,6.40
2019-03-19T22:40:28.704Z,6.50
2019-03-19T22:43:00.992Z,6.50
2019-03-19T22:45:33.462Z,6.40
2019-03-19T22:48:06.067Z,6.40
2019-03-19T22:50:38.727Z,6.30
2019-03-19T22:53:11.179Z,6.20
2019-03-19T22:55:43.746Z,6.20
2019-03-19T22:58:16.268Z,6.20
2019-03-19T23:00:50.371Z,6.20
2019-03-19T23:03:23.152Z,6.10
2019-03-19T23:05:55.817Z,6.10
2019-03-19T23:08:28.373Z,6.10
2019-03-19T23:11:01.404Z,6.20
2019-03-19T23:13:33.964Z,6.10
2019-03-19T23:16:06.838Z,6.10
2019-03-19T23:18:39.686Z,6.10
2019-03-19T23:21:12.342Z,6.10
2019-03-19T23:23:45.122Z,6.10
2019-03-19T23:26:17.519Z,6.00
2019-03-19T23:28:50.027Z,6.00
2019-03-19T23:31:22.511Z,6.00
2019-03-19T23:33:54.968Z,6.10
2019-03-19T23:36:26.993Z,6.00
2019-03-19T23:38:59.693Z,6.00
2019-03-19T23:41:32.576Z,6.00
2019-03-19T23:44:04.889Z,6.00
2019-03-19T23:46:37.664Z,6.00
2019-03-19T23:49:10.193Z,6.00
2019-03-19T23:51:42.829Z,5.90
2019-03-19T23:54:15.725Z,6.00
2019-03-19T23:56:48.302Z,6.00
2019-03-19T23:59:21.150Z,5.90
